Virginia Peak (RGX), Nevada Weather observations

 Day   Time    Ave.   Ave.  Ave.  Vector  Max.   Total    Solar  
  of    of     Air    Rel.  Wind   Wind   Wind  Precip.   Rad.   
Year   Day     Temp.  Hum.  Speed  Dir.   Gust                   
2014   (PST)    F      %     mph   deg.    mph    in.     W/m2  
----------------------------------------------------------------
 326    0:00  999.0   999   42.6   250    49.2   999.00     999
 326    0:15   33.0   100   44.4   247    51.6   999.00     999
 326    0:30   34.0   999   53.4   259    57.6   999.00     999
 326    0:45  999.0   999  999.0   999   999.0   999.00     999
 326    1:00   34.0   100   41.4   253    48.0   999.00     999
 326    1:15   34.0   100   43.2   999    49.8   999.00     999
 326    1:30  999.0   100   41.4   253   999.0   999.00     999
 326    1:45   34.0   100   51.0   246    53.4   999.00     999
 326    2:00   34.0   100   46.8   254    56.4   999.00     999
 326    2:15   35.0   100   49.2   251    52.8   999.00     999
 326    2:30   34.0   100   48.0   253    51.6   999.00     999
 326    2:45   35.0   100   51.6   249    55.8   999.00     999
 326    3:00   34.0   100   45.0   256    54.0   999.00     999
 326    3:15   30.0   100   61.8   253    64.2   999.00     999
 326    3:30   34.0   100   57.6   252    67.8   999.00     999
 326    3:45   34.0   100   52.8   267    64.2   999.00     999
 326    4:00   34.0   100   48.6   258    59.4   999.00     999
 326    4:15   34.0   100  999.0   999    55.2   999.00     999
 326    4:30   35.0   999   47.4   999    51.6   999.00     999
 326    4:45  999.0   999  999.0   999   999.0   999.00     999
 326    5:00   35.0   100   64.8   250    66.6   999.00     999
 326    5:15  999.0   999   62.4   252   999.0   999.00     999
 326    5:30   35.0   100  999.0   247   999.0   999.00     999
 326    5:45  999.0    68   70.2   999    79.2   999.00     999
 326    6:00   35.0   100   71.4   251    76.8   999.00     999
 326    6:15  999.0   999  999.0   999   999.0   999.00     999
 326    6:30   35.0   100   63.6   253    73.8   999.00     999
 326    6:45   35.0   100   69.0   253    71.4   999.00     999
 326    7:00   36.0   100   70.2   245   999.0   999.00     999
 326    7:15  999.0   999  999.0   999   999.0   999.00     999
 326    7:30   36.0   100   75.6   250    78.0   999.00     999
 326    7:45   35.0   100   73.8   246    76.8   999.00     999
 326    8:00   36.0   100   64.8   247    76.2   999.00     999
 326    8:15   36.0   100   61.8   254    75.6   999.00     999
 326    8:30  999.0   999   53.4   254    69.6   999.00     999
 326    8:45   36.0   100   58.2   256    67.8   999.00     999
 326    9:00   36.0   100   77.8   252    66.8   999.00     999
 326    9:15   36.0   100   50.4   999    66.6   999.00     999
 326    9:30   36.0   100   57.0   258    60.0   999.00     999
 326    9:45   36.0   100   55.2   259    63.6   999.00     999
 326   10:00   36.0   100   64.2   246    66.6   999.00     999
 326   10:15   37.0    94   73.2   265    83.4   999.00     999
 326   10:30   38.0    86   65.4   261    81.6   999.00     999
 326   10:45   38.0    84   61.2   248    75.0   999.00     999
 326   11:00   38.0    78   78.6   256    32.2   999.00     999
 326   11:15   37.0    75   95.8   999    90.0   999.00     999
 326   11:30  999.0   999  999.0   999   999.0   999.00     999
 326   11:45   37.0    80   70.8   267    81.6   999.00     999
 326   12:00   36.0    79   70.8   275    78.6   999.00     999
 326   12:15   36.0    80   72.6   258    76.8   999.00     999
 326   12:30   36.0    79   57.0   251   999.0   999.00     999
 326   12:45   35.0    83   63.6   266    65.4   999.00     999
 326   13:00  999.0    84   66.6   327    70.2   999.00     999
 326   13:15   32.0   100   55.2   258    70.2   999.00     999
 326   13:30   32.0   100   49.2   268    67.8   999.00     999
 326   13:45   33.0   100   57.6   263    66.0   999.00     999
 326   14:00   33.0   100   63.0   268    70.2   999.00     999
 326   14:15   32.0   100   60.0   264    71.4   999.00     999
 326   14:30   31.0   999   52.2   332    78.0   999.00     999
 326   14:45   31.0   100   57.0   256    64.8   999.00     999
 326   15:00   31.0   100  999.0   287    58.8   999.00     999
 326   15:15   31.0   100   37.8   261    49.2   999.00     999
 326   15:30   31.0   100   40.8   258    52.2   999.00     999
 326   15:45   30.0   100   39.6   262    49.2   999.00     999
 326   16:00   30.0   100   34.8   282    45.0   999.00     999
 326   16:15   29.0   100   30.0   999    43.8   999.00     999
 326   16:30   27.0   100   33.0   268    37.8   999.00     999
 326   16:45  999.0   100   42.6   273   999.0   999.00     999
 326   17:00   26.0    99   28.2   262    42.6   999.00     999
 326   17:15   25.0   999  999.0   999    37.2   999.00     999
 326   17:30  999.0    98   31.2   278    38.4   999.00     999
 326   17:45   -7.0    34   25.2   277    35.4   999.00     999
 326   18:00   25.0    98   24.0   261    32.4   999.00     999
 326   18:15   25.0    98   26.8   257    31.8   999.00     999
 326   18:30   24.0    98   22.2   271    30.0   999.00     999
 326   18:45   24.0    98   24.6   277    29.4   999.00     999
 326   19:00   24.0    98   27.6   274    31.8   999.00     999
 326   19:15   24.0    98   27.6   337    27.6   999.00     999
 326   19:30   24.0    98   18.0   275    28.8   999.00     999
 326   19:45   24.0    97   20.4   284    27.6   999.00     999
 326   20:00   23.0    96   27.0   280    34.8   999.00     999
 326   20:15   23.0    96   22.8   278    33.0   999.00     999
 326   20:30   23.0    98   18.6   300    24.0   999.00     999
 326   20:45   24.0    98   16.2   292    23.4   999.00     999
 326   21:00   23.0    97  158.2   298    25.2   999.00     999
 326   21:15   23.0    97   10.2   296    22.2   999.00     999
 326   21:30   23.0    97   15.0   297    19.8   999.00     999
 326   21:45   23.0   999   15.0   999    22.2   999.00     999
 326   22:00   23.0    96   21.0   286    23.4   999.00     999

Return to Virginia Peak (RGX) graphs page.


Western Regional Climate Center,wrcc@dri.edu